Selva, Italy

3:39 PM CEST on July 22, 2017 (GMT +0200)
Unione Astrofili Napoletani | | Change Station

Elev 495 ft 40.86 °N, 14.26 °E | Updated 51 seconds ago

Clear
Clear
95.5 °F
Feels Like 91 °F
N
3.8
Wind Variable Wind from ENE
Gusts 4.5 mph

Today
High -- | Low -- °F
--% Chance of Precip.
Yesterday
High -- | Low -- °F
Precip. -- in
Pressure 30.01 in
Visibility -9999.0 miles
Clouds
Heat Index 91 °F
Dew Point 33 °F
Humidity 11%
Rainfall 0.00 in
Snow Depth Not available.
5:49 AM 8:28 PM
Waning Crescent, 1% visible
METAR LIRN 221320Z 22009KT 160V250 CAVOK 34/08 Q1016 NOSIG
Pressure 30.01 in
Visibility -9999.0 miles
Clouds
Heat Index 91 °F
Dew Point 33 °F
Humidity 11%
Rainfall 0.00 in
Snow Depth Not available.
5:49 AM 8:28 PM
Waning Crescent, 1% visible
METAR LIRN 221320Z 22009KT 160V250 CAVOK 34/08 Q1016 NOSIG

Get Severe Weather Alerts

Thanks for signing up!

Be on the lookout for a verification email in your inbox.

You'll start receiving the daily forecast at 6 AM.

×

10-Day Weather Forecast

×

Almanac

Astronomy

Jul. 22, 2017 Rise Set
Actual Time
Civil Twilight
Nautical Twilight
Astronomical Twilight
Moon
Length of Visible Light
Length of Day
Tomorrow will be .
, % of the Moon is Illuminated

Today's Extremes

Country Highs Country Lows

Community

WunderPhotos

Category 6

Welcome to Category 6. This is the collective home for Weather Underground's featured writeups by Dr. Jeff Masters (right), Bob Henson (left), Chris Burt, and other regular contributors.

Nearby

Air Quality

  Air Quality AQ Index Pollutant
Not available.

Snow Depth

Station Depth Elevation

Earthquake Activity

City Distance Mag. Time & Date
Minimum magnitude displayed is 2.5.

Coastal Water Temperatures

Place Temperature

Stations

Nearby Weather Stations

Station Location Temp. Windchill Dew Point Humidity Wind Precip. Elev Updated Type